sensor_id;sensor_type;location;lat;lon;timestamp;P1;durP1;ratioP1;P2;durP2;ratioP2
51228;SDS011;37304;52.216;6.874;2022-11-15T00:03:14;12.25;;;6.10;;
51228;SDS011;37304;52.216;6.874;2022-11-15T00:08:15;16.15;;;7.03;;
51228;SDS011;37304;52.216;6.874;2022-11-15T00:13:15;12.60;;;7.27;;
51228;SDS011;37304;52.216;6.874;2022-11-15T00:18:16;15.63;;;7.80;;
51228;SDS011;37304;52.216;6.874;2022-11-15T00:28:17;18.80;;;7.95;;
51228;SDS011;37304;52.216;6.874;2022-11-15T00:33:17;17.63;;;8.00;;
51228;SDS011;37304;52.216;6.874;2022-11-15T00:38:18;18.33;;;8.67;;
51228;SDS011;37304;52.216;6.874;2022-11-15T00:43:18;21.38;;;7.70;;
51228;SDS011;37304;52.216;6.874;2022-11-15T00:48:18;19.15;;;8.43;;
51228;SDS011;37304;52.216;6.874;2022-11-15T00:53:18;17.30;;;7.63;;
51228;SDS011;37304;52.216;6.874;2022-11-15T00:58:19;24.08;;;8.30;;
51228;SDS011;37304;52.216;6.874;2022-11-15T01:03:19;20.87;;;8.47;;
51228;SDS011;37304;52.216;6.874;2022-11-15T01:08:20;18.80;;;7.47;;
51228;SDS011;37304;52.216;6.874;2022-11-15T01:13:20;20.63;;;8.02;;
51228;SDS011;37304;52.216;6.874;2022-11-15T01:18:20;20.75;;;7.88;;
51228;SDS011;37304;52.216;6.874;2022-11-15T01:23:21;19.95;;;8.18;;
51228;SDS011;37304;52.216;6.874;2022-11-15T01:28:21;15.73;;;7.67;;
51228;SDS011;37304;52.216;6.874;2022-11-15T01:33:21;21.83;;;9.80;;
51228;SDS011;37304;52.216;6.874;2022-11-15T01:43:23;18.33;;;8.73;;
51228;SDS011;37304;52.216;6.874;2022-11-15T01:48:27;20.25;;;9.98;;
51228;SDS011;37304;52.216;6.874;2022-11-15T01:53:31;21.25;;;7.88;;
51228;SDS011;37304;52.216;6.874;2022-11-15T01:58:34;14.30;;;7.30;;
51228;SDS011;37304;52.216;6.874;2022-11-15T02:03:41;18.17;;;8.80;;
51228;SDS011;37304;52.216;6.874;2022-11-15T02:09:02;14.88;;;7.90;;
51228;SDS011;37304;52.216;6.874;2022-11-15T02:14:03;18.02;;;8.00;;
51228;SDS011;37304;52.216;6.874;2022-11-15T02:35:33;18.98;;;8.27;;
51228;SDS011;37304;52.216;6.874;2022-11-15T02:40:53;17.17;;;8.13;;
51228;SDS011;37304;52.216;6.874;2022-11-15T02:46:05;19.40;;;8.90;;
51228;SDS011;37304;52.216;6.874;2022-11-15T02:51:14;17.00;;;9.27;;
51228;SDS011;37304;52.216;6.874;2022-11-15T02:56:16;17.30;;;8.18;;
51228;SDS011;37304;52.216;6.874;2022-11-15T03:01:21;19.90;;;8.77;;
51228;SDS011;37304;52.216;6.874;2022-11-15T03:06:35;19.17;;;8.88;;
51228;SDS011;37304;52.216;6.874;2022-11-15T03:11:45;14.73;;;8.07;;
51228;SDS011;37304;52.216;6.874;2022-11-15T03:22:20;16.88;;;8.68;;
51228;SDS011;37304;52.216;6.874;2022-11-15T03:27:25;16.55;;;8.27;;
51228;SDS011;37304;52.216;6.874;2022-11-15T03:32:29;17.15;;;8.48;;
51228;SDS011;37304;52.216;6.874;2022-11-15T03:37:37;16.83;;;8.43;;
51228;SDS011;37304;52.216;6.874;2022-11-15T03:42:46;15.73;;;7.93;;
51228;SDS011;37304;52.216;6.874;2022-11-15T03:53:02;17.90;;;7.75;;
51228;SDS011;37304;52.216;6.874;2022-11-15T04:03:03;14.43;;;7.00;;
51228;SDS011;37304;52.216;6.874;2022-11-15T04:13:04;16.52;;;7.75;;
51228;SDS011;37304;52.216;6.874;2022-11-15T04:18:04;15.73;;;7.93;;
51228;SDS011;37304;52.216;6.874;2022-11-15T04:28:25;16.23;;;6.78;;
51228;SDS011;37304;52.216;6.874;2022-11-15T04:38:26;16.13;;;8.13;;
51228;SDS011;37304;52.216;6.874;2022-11-15T04:43:26;12.07;;;6.65;;
51228;SDS011;37304;52.216;6.874;2022-11-15T04:48:26;13.93;;;6.78;;
51228;SDS011;37304;52.216;6.874;2022-11-15T04:58:27;14.52;;;7.03;;
51228;SDS011;37304;52.216;6.874;2022-11-15T05:03:27;11.52;;;6.72;;
51228;SDS011;37304;52.216;6.874;2022-11-15T05:13:46;12.10;;;6.57;;
51228;SDS011;37304;52.216;6.874;2022-11-15T05:23:50;17.73;;;5.82;;
51228;SDS011;37304;52.216;6.874;2022-11-15T05:33:55;12.18;;;5.70;;
51228;SDS011;37304;52.216;6.874;2022-11-15T05:38:56;12.20;;;5.93;;
51228;SDS011;37304;52.216;6.874;2022-11-15T05:43:56;9.87;;;5.37;;
51228;SDS011;37304;52.216;6.874;2022-11-15T05:48:58;10.05;;;5.97;;
51228;SDS011;37304;52.216;6.874;2022-11-15T05:53:59;12.90;;;6.40;;
51228;SDS011;37304;52.216;6.874;2022-11-15T05:59:00;10.43;;;6.63;;
51228;SDS011;37304;52.216;6.874;2022-11-15T06:04:01;13.38;;;6.57;;
51228;SDS011;37304;52.216;6.874;2022-11-15T06:14:02;12.65;;;6.43;;
51228;SDS011;37304;52.216;6.874;2022-11-15T06:19:02;14.45;;;7.43;;
51228;SDS011;37304;52.216;6.874;2022-11-15T06:24:03;17.00;;;7.43;;
51228;SDS011;37304;52.216;6.874;2022-11-15T06:29:03;12.63;;;7.75;;
51228;SDS011;37304;52.216;6.874;2022-11-15T06:34:04;15.57;;;7.28;;
51228;SDS011;37304;52.216;6.874;2022-11-15T06:39:04;14.87;;;7.60;;
51228;SDS011;37304;52.216;6.874;2022-11-15T06:44:05;17.10;;;8.05;;
51228;SDS011;37304;52.216;6.874;2022-11-15T06:49:05;15.73;;;7.57;;
51228;SDS011;37304;52.216;6.874;2022-11-15T06:54:06;17.35;;;8.55;;
51228;SDS011;37304;52.216;6.874;2022-11-15T06:59:06;16.10;;;7.80;;
51228;SDS011;37304;52.216;6.874;2022-11-15T07:09:07;16.90;;;8.75;;
51228;SDS011;37304;52.216;6.874;2022-11-15T07:19:08;17.98;;;8.30;;
51228;SDS011;37304;52.216;6.874;2022-11-15T07:24:08;13.38;;;7.35;;
51228;SDS011;37304;52.216;6.874;2022-11-15T07:34:09;13.98;;;8.48;;
51228;SDS011;37304;52.216;6.874;2022-11-15T07:39:09;14.77;;;7.72;;
51228;SDS011;37304;52.216;6.874;2022-11-15T07:44:12;14.82;;;7.22;;
51228;SDS011;37304;52.216;6.874;2022-11-15T07:54:12;14.45;;;7.22;;
51228;SDS011;37304;52.216;6.874;2022-11-15T07:59:12;14.38;;;8.68;;
51228;SDS011;37304;52.216;6.874;2022-11-15T08:04:13;11.93;;;6.82;;
51228;SDS011;37304;52.216;6.874;2022-11-15T08:09:13;13.87;;;6.60;;
51228;SDS011;37304;52.216;6.874;2022-11-15T08:14:13;13.00;;;6.70;;
51228;SDS011;37304;52.216;6.874;2022-11-15T08:19:14;11.65;;;5.97;;
51228;SDS011;37304;52.216;6.874;2022-11-15T08:24:14;11.80;;;6.37;;
51228;SDS011;37304;52.216;6.874;2022-11-15T08:29:15;11.88;;;6.55;;
51228;SDS011;37304;52.216;6.874;2022-11-15T08:34:15;11.10;;;6.63;;
51228;SDS011;37304;52.216;6.874;2022-11-15T08:39:17;9.13;;;5.80;;
51228;SDS011;37304;52.216;6.874;2022-11-15T08:44:17;10.98;;;5.07;;
51228;SDS011;37304;52.216;6.874;2022-11-15T08:54:18;9.60;;;4.97;;
51228;SDS011;37304;52.216;6.874;2022-11-15T08:59:18;11.27;;;5.03;;
51228;SDS011;37304;52.216;6.874;2022-11-15T09:04:18;8.77;;;5.43;;
51228;SDS011;37304;52.216;6.874;2022-11-15T09:09:19;9.47;;;5.10;;
51228;SDS011;37304;52.216;6.874;2022-11-15T09:14:19;7.63;;;4.00;;
51228;SDS011;37304;52.216;6.874;2022-11-15T09:19:19;7.13;;;4.50;;
51228;SDS011;37304;52.216;6.874;2022-11-15T09:24:20;6.53;;;3.67;;
51228;SDS011;37304;52.216;6.874;2022-11-15T09:29:20;6.53;;;3.90;;
51228;SDS011;37304;52.216;6.874;2022-11-15T09:34:21;6.27;;;3.90;;
51228;SDS011;37304;52.216;6.874;2022-11-15T09:39:21;9.70;;;4.93;;
51228;SDS011;37304;52.216;6.874;2022-11-15T09:44:33;6.67;;;4.30;;
51228;SDS011;37304;52.216;6.874;2022-11-15T09:49:55;6.90;;;4.18;;
51228;SDS011;37304;52.216;6.874;2022-11-15T09:54:59;5.75;;;3.85;;
51228;SDS011;37304;52.216;6.874;2022-11-15T10:00:02;5.73;;;3.07;;
51228;SDS011;37304;52.216;6.874;2022-11-15T10:05:10;6.40;;;3.20;;
51228;SDS011;37304;52.216;6.874;2022-11-15T10:10:32;5.47;;;2.80;;
51228;SDS011;37304;52.216;6.874;2022-11-15T10:15:37;5.07;;;3.20;;
51228;SDS011;37304;52.216;6.874;2022-11-15T10:26:07;4.10;;;2.33;;
51228;SDS011;37304;52.216;6.874;2022-11-15T10:31:26;3.45;;;2.15;;
51228;SDS011;37304;52.216;6.874;2022-11-15T10:36:28;4.13;;;2.00;;
51228;SDS011;37304;52.216;6.874;2022-11-15T10:41:34;5.23;;;2.33;;
51228;SDS011;37304;52.216;6.874;2022-11-15T10:46:40;3.90;;;2.10;;
51228;SDS011;37304;52.216;6.874;2022-11-15T10:51:58;8.43;;;3.83;;
51228;SDS011;37304;52.216;6.874;2022-11-15T10:56:59;9.07;;;1.85;;
51228;SDS011;37304;52.216;6.874;2022-11-15T11:02:23;2.95;;;1.63;;
51228;SDS011;37304;52.216;6.874;2022-11-15T11:07:28;3.17;;;1.23;;
51228;SDS011;37304;52.216;6.874;2022-11-15T11:12:31;3.58;;;1.25;;
51228;SDS011;37304;52.216;6.874;2022-11-15T11:34:33;1.95;;;0.85;;
51228;SDS011;37304;52.216;6.874;2022-11-15T11:45:05;3.50;;;1.30;;
51228;SDS011;37304;52.216;6.874;2022-11-15T11:50:34;1.63;;;1.00;;
51228;SDS011;37304;52.216;6.874;2022-11-15T11:55:40;2.63;;;1.52;;
51228;SDS011;37304;52.216;6.874;2022-11-15T12:00:59;3.50;;;2.20;;
51228;SDS011;37304;52.216;6.874;2022-11-15T12:06:36;4.80;;;2.55;;
51228;SDS011;37304;52.216;6.874;2022-11-15T12:11:54;5.40;;;3.25;;
51228;SDS011;37304;52.216;6.874;2022-11-15T12:17:01;3.38;;;2.58;;
51228;SDS011;37304;52.216;6.874;2022-11-15T12:27:51;5.47;;;3.05;;
51228;SDS011;37304;52.216;6.874;2022-11-15T12:32:59;4.82;;;2.95;;
51228;SDS011;37304;52.216;6.874;2022-11-15T12:38:01;5.72;;;2.45;;
51228;SDS011;37304;52.216;6.874;2022-11-15T12:58:27;3.47;;;2.15;;
51228;SDS011;37304;52.216;6.874;2022-11-15T13:14:48;3.83;;;1.60;;
51228;SDS011;37304;52.216;6.874;2022-11-15T13:25:14;2.60;;;1.30;;
51228;SDS011;37304;52.216;6.874;2022-11-15T13:30:20;2.38;;;1.02;;
51228;SDS011;37304;52.216;6.874;2022-11-15T13:35:23;1.25;;;0.73;;
51228;SDS011;37304;52.216;6.874;2022-11-15T13:40:29;1.85;;;1.00;;
51228;SDS011;37304;52.216;6.874;2022-11-15T13:45:35;0.80;;;0.80;;
51228;SDS011;37304;52.216;6.874;2022-11-15T13:50:38;0.83;;;0.70;;
51228;SDS011;37304;52.216;6.874;2022-11-15T13:55:39;1.63;;;0.88;;
51228;SDS011;37304;52.216;6.874;2022-11-15T14:00:41;1.43;;;0.83;;
51228;SDS011;37304;52.216;6.874;2022-11-15T14:05:43;3.33;;;1.20;;
51228;SDS011;37304;52.216;6.874;2022-11-15T14:10:45;0.50;;;0.50;;
51228;SDS011;37304;52.216;6.874;2022-11-15T14:15:45;1.80;;;1.20;;
51228;SDS011;37304;52.216;6.874;2022-11-15T14:20:45;1.67;;;0.88;;
51228;SDS011;37304;52.216;6.874;2022-11-15T14:25:53;0.87;;;0.60;;
51228;SDS011;37304;52.216;6.874;2022-11-15T14:30:58;3.47;;;0.70;;
51228;SDS011;37304;52.216;6.874;2022-11-15T14:46:19;3.22;;;0.70;;
51228;SDS011;37304;52.216;6.874;2022-11-15T14:51:19;3.23;;;1.00;;
51228;SDS011;37304;52.216;6.874;2022-11-15T14:56:20;2.63;;;1.07;;
51228;SDS011;37304;52.216;6.874;2022-11-15T15:01:24;2.43;;;0.77;;
51228;SDS011;37304;52.216;6.874;2022-11-15T15:06:25;0.80;;;0.52;;
51228;SDS011;37304;52.216;6.874;2022-11-15T15:11:27;4.95;;;1.45;;
51228;SDS011;37304;52.216;6.874;2022-11-15T15:16:29;1.73;;;0.63;;
51228;SDS011;37304;52.216;6.874;2022-11-15T15:21:30;3.07;;;0.80;;
51228;SDS011;37304;52.216;6.874;2022-11-15T15:26:33;1.50;;;0.68;;
51228;SDS011;37304;52.216;6.874;2022-11-15T15:31:36;1.27;;;0.50;;
51228;SDS011;37304;52.216;6.874;2022-11-15T15:36:36;1.53;;;0.77;;
51228;SDS011;37304;52.216;6.874;2022-11-15T15:41:36;3.43;;;1.40;;
51228;SDS011;37304;52.216;6.874;2022-11-15T15:46:37;4.07;;;0.80;;
51228;SDS011;37304;52.216;6.874;2022-11-15T15:51:37;4.37;;;1.07;;
51228;SDS011;37304;52.216;6.874;2022-11-15T15:56:38;3.53;;;1.20;;
51228;SDS011;37304;52.216;6.874;2022-11-15T16:01:38;3.07;;;1.00;;
51228;SDS011;37304;52.216;6.874;2022-11-15T16:06:39;4.03;;;0.80;;
51228;SDS011;37304;52.216;6.874;2022-11-15T16:11:44;1.55;;;0.73;;
51228;SDS011;37304;52.216;6.874;2022-11-15T16:16:46;4.00;;;0.77;;
51228;SDS011;37304;52.216;6.874;2022-11-15T16:21:46;3.17;;;1.10;;
51228;SDS011;37304;52.216;6.874;2022-11-15T16:26:47;3.30;;;1.20;;
51228;SDS011;37304;52.216;6.874;2022-11-15T16:31:48;1.98;;;1.02;;
51228;SDS011;37304;52.216;6.874;2022-11-15T16:36:55;1.90;;;1.10;;
51228;SDS011;37304;52.216;6.874;2022-11-15T16:41:56;2.53;;;0.82;;
51228;SDS011;37304;52.216;6.874;2022-11-15T16:46:59;1.95;;;1.17;;
51228;SDS011;37304;52.216;6.874;2022-11-15T16:52:01;1.73;;;0.90;;
51228;SDS011;37304;52.216;6.874;2022-11-15T16:57:01;0.88;;;0.63;;
51228;SDS011;37304;52.216;6.874;2022-11-15T17:02:02;1.45;;;0.70;;
51228;SDS011;37304;52.216;6.874;2022-11-15T17:07:02;2.93;;;1.70;;
51228;SDS011;37304;52.216;6.874;2022-11-15T17:12:02;1.85;;;0.90;;
51228;SDS011;37304;52.216;6.874;2022-11-15T17:17:03;1.53;;;0.93;;
51228;SDS011;37304;52.216;6.874;2022-11-15T17:22:03;2.93;;;0.90;;
51228;SDS011;37304;52.216;6.874;2022-11-15T17:27:03;3.03;;;1.20;;
51228;SDS011;37304;52.216;6.874;2022-11-15T17:32:04;1.87;;;1.30;;
51228;SDS011;37304;52.216;6.874;2022-11-15T17:37:04;2.13;;;1.13;;
51228;SDS011;37304;52.216;6.874;2022-11-15T17:42:04;3.47;;;1.15;;
51228;SDS011;37304;52.216;6.874;2022-11-15T17:47:05;6.07;;;1.67;;
51228;SDS011;37304;52.216;6.874;2022-11-15T17:52:05;3.30;;;1.13;;
51228;SDS011;37304;52.216;6.874;2022-11-15T17:57:06;3.78;;;1.50;;
51228;SDS011;37304;52.216;6.874;2022-11-15T18:02:08;6.50;;;1.30;;
51228;SDS011;37304;52.216;6.874;2022-11-15T18:07:08;4.50;;;0.95;;
51228;SDS011;37304;52.216;6.874;2022-11-15T18:12:10;2.13;;;1.25;;
51228;SDS011;37304;52.216;6.874;2022-11-15T18:17:11;4.50;;;1.48;;
51228;SDS011;37304;52.216;6.874;2022-11-15T18:22:11;2.77;;;1.50;;
51228;SDS011;37304;52.216;6.874;2022-11-15T18:27:11;2.80;;;1.95;;
51228;SDS011;37304;52.216;6.874;2022-11-15T18:32:12;2.90;;;1.20;;
51228;SDS011;37304;52.216;6.874;2022-11-15T18:37:14;1.73;;;1.20;;
51228;SDS011;37304;52.216;6.874;2022-11-15T18:42:14;4.37;;;1.70;;
51228;SDS011;37304;52.216;6.874;2022-11-15T18:47:14;5.77;;;1.50;;
51228;SDS011;37304;52.216;6.874;2022-11-15T18:52:15;2.37;;;1.27;;
51228;SDS011;37304;52.216;6.874;2022-11-15T18:57:15;4.57;;;1.37;;
51228;SDS011;37304;52.216;6.874;2022-11-15T19:02:18;4.82;;;2.40;;
51228;SDS011;37304;52.216;6.874;2022-11-15T19:07:19;3.27;;;1.60;;
51228;SDS011;37304;52.216;6.874;2022-11-15T19:12:19;2.73;;;1.50;;
51228;SDS011;37304;52.216;6.874;2022-11-15T19:17:19;2.22;;;1.42;;
51228;SDS011;37304;52.216;6.874;2022-11-15T19:22:19;2.13;;;1.23;;
51228;SDS011;37304;52.216;6.874;2022-11-15T19:27:20;3.33;;;1.50;;
51228;SDS011;37304;52.216;6.874;2022-11-15T19:32:20;4.53;;;1.60;;
51228;SDS011;37304;52.216;6.874;2022-11-15T19:37:21;3.10;;;1.60;;
51228;SDS011;37304;52.216;6.874;2022-11-15T19:42:21;2.87;;;1.23;;
51228;SDS011;37304;52.216;6.874;2022-11-15T19:47:21;1.90;;;1.23;;
51228;SDS011;37304;52.216;6.874;2022-11-15T19:52:22;4.67;;;1.90;;
51228;SDS011;37304;52.216;6.874;2022-11-15T19:57:23;4.05;;;1.80;;
51228;SDS011;37304;52.216;6.874;2022-11-15T20:02:23;3.08;;;1.65;;
51228;SDS011;37304;52.216;6.874;2022-11-15T20:07:23;2.80;;;1.90;;
51228;SDS011;37304;52.216;6.874;2022-11-15T20:12:24;4.22;;;1.75;;
51228;SDS011;37304;52.216;6.874;2022-11-15T20:17:25;2.70;;;1.60;;
51228;SDS011;37304;52.216;6.874;2022-11-15T20:22:28;2.95;;;1.70;;
51228;SDS011;37304;52.216;6.874;2022-11-15T20:27:28;2.77;;;1.70;;
51228;SDS011;37304;52.216;6.874;2022-11-15T20:32:31;3.78;;;2.17;;
51228;SDS011;37304;52.216;6.874;2022-11-15T20:37:32;4.33;;;2.13;;
51228;SDS011;37304;52.216;6.874;2022-11-15T20:42:32;4.33;;;2.20;;
51228;SDS011;37304;52.216;6.874;2022-11-15T20:47:35;4.28;;;1.80;;
51228;SDS011;37304;52.216;6.874;2022-11-15T20:52:35;2.80;;;2.23;;
51228;SDS011;37304;52.216;6.874;2022-11-15T20:57:35;3.10;;;1.83;;
51228;SDS011;37304;52.216;6.874;2022-11-15T21:02:36;3.67;;;2.47;;
51228;SDS011;37304;52.216;6.874;2022-11-15T21:07:38;3.20;;;2.03;;
51228;SDS011;37304;52.216;6.874;2022-11-15T21:12:38;3.90;;;2.45;;
51228;SDS011;37304;52.216;6.874;2022-11-15T21:17:38;3.43;;;2.23;;
51228;SDS011;37304;52.216;6.874;2022-11-15T21:22:39;3.30;;;1.70;;
51228;SDS011;37304;52.216;6.874;2022-11-15T21:27:39;4.40;;;2.70;;
51228;SDS011;37304;52.216;6.874;2022-11-15T21:32:39;6.90;;;2.70;;
51228;SDS011;37304;52.216;6.874;2022-11-15T21:37:40;5.53;;;2.33;;
51228;SDS011;37304;52.216;6.874;2022-11-15T21:42:40;5.63;;;2.13;;
51228;SDS011;37304;52.216;6.874;2022-11-15T21:47:40;3.30;;;2.28;;
51228;SDS011;37304;52.216;6.874;2022-11-15T21:52:41;4.43;;;2.10;;
51228;SDS011;37304;52.216;6.874;2022-11-15T21:57:41;4.27;;;2.13;;
51228;SDS011;37304;52.216;6.874;2022-11-15T22:02:42;4.93;;;1.97;;
51228;SDS011;37304;52.216;6.874;2022-11-15T22:07:42;2.67;;;2.07;;
51228;SDS011;37304;52.216;6.874;2022-11-15T22:12:42;2.70;;;2.00;;
51228;SDS011;37304;52.216;6.874;2022-11-15T22:17:44;3.75;;;2.25;;
51228;SDS011;37304;52.216;6.874;2022-11-15T22:22:59;4.95;;;2.13;;
51228;SDS011;37304;52.216;6.874;2022-11-15T22:28:00;4.68;;;2.83;;
51228;SDS011;37304;52.216;6.874;2022-11-15T22:38:01;4.57;;;2.25;;
51228;SDS011;37304;52.216;6.874;2022-11-15T22:43:01;5.70;;;2.80;;
51228;SDS011;37304;52.216;6.874;2022-11-15T22:48:06;4.85;;;2.95;;
51228;SDS011;37304;52.216;6.874;2022-11-15T22:53:06;4.30;;;2.60;;
51228;SDS011;37304;52.216;6.874;2022-11-15T22:58:06;8.73;;;3.22;;
51228;SDS011;37304;52.216;6.874;2022-11-15T23:03:07;3.13;;;2.35;;
51228;SDS011;37304;52.216;6.874;2022-11-15T23:08:08;3.53;;;2.30;;
51228;SDS011;37304;52.216;6.874;2022-11-15T23:13:10;3.72;;;3.03;;
51228;SDS011;37304;52.216;6.874;2022-11-15T23:23:16;4.43;;;2.45;;
51228;SDS011;37304;52.216;6.874;2022-11-15T23:28:16;4.73;;;2.83;;
51228;SDS011;37304;52.216;6.874;2022-11-15T23:33:16;6.30;;;3.23;;
51228;SDS011;37304;52.216;6.874;2022-11-15T23:38:35;5.07;;;3.25;;
51228;SDS011;37304;52.216;6.874;2022-11-15T23:43:36;4.68;;;2.88;;
51228;SDS011;37304;52.216;6.874;2022-11-15T23:48:36;4.73;;;3.20;;
51228;SDS011;37304;52.216;6.874;2022-11-15T23:53:37;6.87;;;3.43;;
51228;SDS011;37304;52.216;6.874;2022-11-15T23:58:37;5.77;;;3.20;;
